»·PEaware :: N733TR KTUS-KNYL

N733TR :: KTUS-KNYL

FLIGHT INFORMATION

Flight Status: Arrived
Operator: Privately registered:
United States
More flights under this callsign
Pilot: Jonathan B. (787)
Aircraft: CIRRUS VISIONJET
(SF50)
More flights by this aircraft type
Origin: KTUS Tucson Intl
United States
Destination: KNYL Yuma MCAS/Yuma Intl
United States
More flights between these airports :: More routes between these airports
Route: TUS V66 BZA
File this flight plan on PilotEdge
Remarks:
Altitude:
(Current/Filed)
12,000ft
Speed:
(Current/Filed)
170kts
Departed: 01-Nov-23 01:42 PM
Arrived: 01-Nov-23 02:40 PM
Distance/Time
Traveled:
189nm/0:58
Distance/Time
To Go:
Arrived

Flight Plot

Page will automatically refresh every two minutes.

Flight plan parsing failed; only flown route is shown


Map Options




Map Legend


Flown Route
Filed Route
Departure Airport
Arrival Airport
Navaid (VOR, NDB)
Fix

Horizontal Profiles

Position Reports

Time Latitude Longitude Heading Altitude Ground
Speed
01-Nov-23 13:29 32.124220 -110.944317 266 2579ft 0kts
01-Nov-23 13:31 32.124220 -110.944317 266 2579ft 0kts
01-Nov-23 13:31 32.124220 -110.944317 266 2579ft 0kts
01-Nov-23 13:32 32.124220 -110.944317 266 2579ft 0kts
01-Nov-23 13:33 32.124220 -110.944317 266 2579ft 0kts
01-Nov-23 13:34 32.124220 -110.944317 266 2579ft 0kts
01-Nov-23 13:35 32.124220 -110.944317 266 2579ft 0kts
01-Nov-23 13:36 32.124220 -110.944317 266 2579ft 0kts
01-Nov-23 13:37 32.124220 -110.944317 266 2579ft 0kts
01-Nov-23 13:38 32.124220 -110.944317 266 2579ft 0kts
01-Nov-23 13:39 32.124155 -110.945851 265 2576ft 17kts
01-Nov-23 13:40 32.124561 -110.947812 223 2572ft 0kts
01-Nov-23 13:41 32.119705 -110.943474 131 2591ft 96kts
01-Nov-23 13:42 32.096305 -110.913736 129 4465ft 132kts
01-Nov-23 13:43 32.072431 -110.879956 129 6711ft 140kts
01-Nov-23 13:44 32.046617 -110.842058 130 8290ft 185kts
01-Nov-23 13:45 32.011475 -110.874889 278 9122ft 241kts
01-Nov-23 13:46 32.024108 -110.949945 294 11090ft 230kts
01-Nov-23 13:47 32.067223 -111.004993 315 12469ft 246kts
01-Nov-23 13:48 32.121641 -111.065321 315 12473ft 282kts
01-Nov-23 13:49 32.179202 -111.129193 315 12460ft 279kts
01-Nov-23 13:50 32.233553 -111.192800 296 12449ft 272kts
01-Nov-23 13:51 32.270656 -111.270388 298 12458ft 270kts
01-Nov-23 13:52 32.307355 -111.347862 298 12459ft 271kts
01-Nov-23 13:53 32.345677 -111.424369 301 12460ft 270kts
01-Nov-23 13:54 32.385948 -111.499576 299 12468ft 270kts
01-Nov-23 13:55 32.423831 -111.576448 299 12536ft 269kts
01-Nov-23 13:56 32.461586 -111.653273 299 12543ft 270kts
01-Nov-23 13:57 32.499388 -111.730310 299 12554ft 270kts
01-Nov-23 13:58 32.537137 -111.807370 299 12548ft 270kts
01-Nov-23 13:59 32.574834 -111.884514 299 12540ft 270kts
01-Nov-23 14:00 32.612394 -111.961501 299 12525ft 269kts
01-Nov-23 14:01 32.649944 -112.038622 299 12539ft 270kts
01-Nov-23 14:02 32.687549 -112.116126 300 12529ft 273kts
01-Nov-23 14:03 32.725386 -112.194109 299 12519ft 272kts
01-Nov-23 14:04 32.763086 -112.272061 299 12500ft 271kts
01-Nov-23 14:05 32.800600 -112.349836 300 12503ft 272kts
01-Nov-23 14:06 32.838378 -112.428207 299 12496ft 272kts
01-Nov-23 14:07 32.875782 -112.506117 299 12509ft 271kts
01-Nov-23 14:08 32.913095 -112.583966 300 12503ft 270kts
01-Nov-23 14:09 32.950602 -112.662365 298 12492ft 273kts
01-Nov-23 14:10 32.945762 -112.752037 261 12497ft 276kts
01-Nov-23 14:11 32.933753 -112.841866 261 12485ft 274kts
01-Nov-23 14:12 32.921572 -112.931700 261 12496ft 276kts
01-Nov-23 14:13 32.909287 -113.022013 261 12504ft 277kts
01-Nov-23 14:14 32.896896 -113.112614 261 12487ft 276kts
01-Nov-23 14:15 32.884590 -113.201908 261 12480ft 273kts
01-Nov-23 14:16 32.872250 -113.291189 260 12480ft 274kts
01-Nov-23 14:17 32.859790 -113.380827 260 12482ft 275kts
01-Nov-23 14:18 32.847244 -113.470397 260 12464ft 275kts
01-Nov-23 14:19 32.834637 -113.560020 260 12469ft 276kts
01-Nov-23 14:20 32.821967 -113.649727 260 12467ft 274kts
01-Nov-23 14:21 32.809232 -113.739229 259 12480ft 274kts
01-Nov-23 14:22 32.796464 -113.828564 259 12498ft 274kts
01-Nov-23 14:23 32.783704 -113.917429 259 12501ft 269kts
01-Nov-23 14:24 32.775552 -114.003682 268 12508ft 255kts
01-Nov-23 14:25 32.775942 -114.084326 275 12461ft 239kts
01-Nov-23 14:26 32.783071 -114.166467 275 11145ft 255kts
01-Nov-23 14:27 32.790547 -114.249831 275 9600ft 254kts
01-Nov-23 14:28 32.798351 -114.332619 276 7954ft 251kts
01-Nov-23 14:29 32.804849 -114.413184 275 6202ft 241kts
01-Nov-23 14:30 32.810070 -114.489637 276 5228ft 216kts
01-Nov-23 14:31 32.835669 -114.542420 3 5231ft 197kts
01-Nov-23 14:32 32.879266 -114.504055 42 5238ft 199kts
01-Nov-23 14:33 32.851694 -114.472712 200 5008ft 221kts
01-Nov-23 14:34 32.803254 -114.495157 201 4058ft 160kts
01-Nov-23 14:35 32.762302 -114.513665 200 3146ft 144kts
01-Nov-23 14:36 32.726375 -114.530086 213 2521ft 146kts
01-Nov-23 14:37 32.695357 -114.562520 224 1416ft 143kts
01-Nov-23 14:38 32.670074 -114.591140 227 602ft 119kts
01-Nov-23 14:39 32.651782 -114.612704 260 188ft 34kts
01-Nov-23 14:40 32.651492 -114.614143 258 188ft 0kts
01-Nov-23 14:41 32.651529 -114.616960 317 188ft 0kts

Navigation Log

Ident Type
Flight plan parsing failed, navigation log unavailable